Time;durP1;ratioP1;P1;durP2;ratioP2;P2;SDS_P1;SDS_P2;PMS_P1;PMS_P2;Temp;Humidity;BMP_temperature;BMP_pressure;BME280_temperature;BME280_humidity;BME280_pressure;Samples;Min_cycle;Max_cycle;Signal;HPM_P1;HPM_P2
2022/06/27 00:01:46;;;;;;;3.47;3.17;;;;;;;;;;5009758;28;20807;-70
2022/06/27 00:04:16;;;;;;;3.40;2.60;;;;;;;;;;5009742;28;20454;-70
2022/06/27 00:06:43;;;;;;;3.17;2.67;;;;;;;;;;5010331;28;20487;-70
2022/06/27 00:09:11;;;;;;;4.80;3.27;;;;;;;;;;5009902;28;20458;-70
2022/06/27 00:11:38;;;;;;;4.80;3.47;;;;;;;;;;5009273;28;20855;-70
2022/06/27 00:14:06;;;;;;;4.23;3.30;;;;;;;;;;5009139;28;20905;-70
2022/06/27 00:16:34;;;;;;;5.90;3.33;;;;;;;;;;5008391;28;20455;-70
2022/06/27 00:19:02;;;;;;;4.53;2.93;;;;;;;;;;5008799;28;20469;-70
2022/06/27 00:21:31;;;;;;;4.70;3.50;;;;;;;;;;5007950;28;20939;-70
2022/06/27 00:24:01;;;;;;;3.97;2.80;;;;;;;;;;5008465;28;20863;-70
2022/06/27 00:26:32;;;;;;;3.90;3.00;;;;;;;;;;5010365;28;20491;-70
2022/06/27 00:29:00;;;;;;;5.40;3.07;;;;;;;;;;5010271;28;20471;-70
2022/06/27 00:31:27;;;;;;;4.00;3.10;;;;;;;;;;5009288;28;20716;-70
2022/06/27 00:33:55;;;;;;;6.63;3.30;;;;;;;;;;5008513;28;20459;-70
2022/06/27 00:36:23;;;;;;;4.17;3.03;;;;;;;;;;5008397;28;20451;-70
2022/06/27 00:38:52;;;;;;;4.00;3.20;;;;;;;;;;5008897;28;20861;-70
2022/06/27 00:41:19;;;;;;;4.90;3.50;;;;;;;;;;5009511;28;20463;-69
2022/06/27 00:43:47;;;;;;;6.47;3.73;;;;;;;;;;5008632;28;20543;-70
2022/06/27 00:46:15;;;;;;;4.10;3.70;;;;;;;;;;5011843;28;20902;-70
2022/06/27 00:48:42;;;;;;;4.20;3.17;;;;;;;;;;5012227;28;20863;-70
2022/06/27 00:51:11;;;;;;;3.50;3.20;;;;;;;;;;5013301;28;20848;-70
2022/06/27 00:53:39;;;;;;;7.50;3.87;;;;;;;;;;5012223;28;20463;-70
2022/06/27 00:56:08;;;;;;;5.37;3.30;;;;;;;;;;5012278;28;20534;-70
2022/06/27 00:58:37;;;;;;;3.10;2.80;;;;;;;;;;5010856;28;20478;-70
2022/06/27 01:01:10;;;;;;;5.60;3.70;;;;;;;;;;5012157;28;20546;-70
2022/06/27 01:03:37;;;;;;;4.50;3.13;;;;;;;;;;5011803;28;20455;-70
2022/06/27 01:06:05;;;;;;;3.63;3.00;;;;;;;;;;5012253;28;20512;-70
2022/06/27 01:08:32;;;;;;;6.70;3.37;;;;;;;;;;5013251;28;20443;-70
2022/06/27 01:11:00;;;;;;;5.80;3.23;;;;;;;;;;5011616;28;20703;-70
2022/06/27 01:13:31;;;;;;;5.50;3.30;;;;;;;;;;5012503;28;20463;-70
2022/06/27 01:15:59;;;;;;;3.80;3.30;;;;;;;;;;5011482;28;20514;-69
2022/06/27 01:18:27;;;;;;;4.00;2.93;;;;;;;;;;5010684;28;20899;-70
2022/06/27 01:20:54;;;;;;;6.40;3.37;;;;;;;;;;5011077;28;20466;-69
2022/06/27 01:23:24;;;;;;;5.07;3.20;;;;;;;;;;5012648;28;20451;-70
2022/06/27 01:25:52;;;;;;;3.50;3.20;;;;;;;;;;5012445;28;20471;-70
2022/06/27 01:28:20;;;;;;;3.20;2.83;;;;;;;;;;5009863;28;20595;-70
2022/06/27 01:30:47;;;;;;;4.47;3.60;;;;;;;;;;5011310;28;20762;-70
2022/06/27 01:33:15;;;;;;;5.60;4.10;;;;;;;;;;5011741;28;20465;-70
2022/06/27 01:35:43;;;;;;;3.77;3.33;;;;;;;;;;5011915;28;20474;-70
2022/06/27 01:38:11;;;;;;;3.53;3.23;;;;;;;;;;5012247;28;20489;-70
2022/06/27 01:40:41;;;;;;;4.47;3.70;;;;;;;;;;5010819;28;20451;-70
2022/06/27 01:43:09;;;;;;;4.57;3.20;;;;;;;;;;5011717;28;20497;-70
2022/06/27 01:45:36;;;;;;;5.27;4.77;;;;;;;;;;5011324;28;20451;-69
2022/06/27 01:48:04;;;;;;;7.87;3.37;;;;;;;;;;5011703;28;20502;-70
2022/06/27 01:50:32;;;;;;;3.80;3.13;;;;;;;;;;5010151;28;20561;-70
2022/06/27 01:53:01;;;;;;;5.60;3.63;;;;;;;;;;5010342;28;20520;-70
2022/06/27 01:55:29;;;;;;;5.33;4.10;;;;;;;;;;5010178;28;20586;-69
2022/06/27 01:57:59;;;;;;;3.87;3.47;;;;;;;;;;5026466;28;20473;-70
2022/06/27 02:00:29;;;;;;;4.60;3.20;;;;;;;;;;5031624;28;20450;-70
2022/06/27 02:02:57;;;;;;;4.40;3.70;;;;;;;;;;5031856;28;20507;-70
2022/06/27 02:05:24;;;;;;;5.77;3.43;;;;;;;;;;5031045;28;20458;-70
2022/06/27 02:07:53;;;;;;;5.13;4.63;;;;;;;;;;5029676;28;20757;-70
2022/06/27 02:10:21;;;;;;;5.73;3.70;;;;;;;;;;5030930;28;20792;-70
2022/06/27 02:12:48;;;;;;;5.17;3.97;;;;;;;;;;5030340;28;20465;-70
2022/06/27 02:15:18;;;;;;;4.10;3.37;;;;;;;;;;5030967;28;20456;-70
2022/06/27 02:17:46;;;;;;;4.30;3.90;;;;;;;;;;5031750;28;20541;-69
2022/06/27 02:20:14;;;;;;;4.50;4.00;;;;;;;;;;5031624;28;20458;-70
2022/06/27 02:22:42;;;;;;;3.20;2.90;;;;;;;;;;5032330;28;20525;-70
2022/06/27 02:25:11;;;;;;;5.30;3.90;;;;;;;;;;5031871;28;20519;-70
2022/06/27 02:27:40;;;;;;;4.10;3.70;;;;;;;;;;5031918;28;20982;-69
2022/06/27 02:30:08;;;;;;;4.20;3.57;;;;;;;;;;5031323;28;20484;-70
2022/06/27 02:32:41;;;;;;;4.23;3.73;;;;;;;;;;5031529;28;20463;-70
2022/06/27 02:35:09;;;;;;;3.80;3.40;;;;;;;;;;5031909;28;20458;-69
2022/06/27 02:37:38;;;;;;;3.80;3.37;;;;;;;;;;5031834;28;20450;-69
2022/06/27 02:40:08;;;;;;;3.73;3.00;;;;;;;;;;5031442;28;20458;-69
2022/06/27 02:42:36;;;;;;;5.20;3.80;;;;;;;;;;5031404;28;20465;-69
2022/06/27 02:45:04;;;;;;;7.27;3.37;;;;;;;;;;5031888;28;20472;-69
2022/06/27 02:47:33;;;;;;;7.23;3.57;;;;;;;;;;5031957;28;20486;-69
2022/06/27 02:50:02;;;;;;;3.50;3.20;;;;;;;;;;5031906;28;20811;-69
2022/06/27 02:52:32;;;;;;;3.70;3.00;;;;;;;;;;5031206;28;20881;-69
2022/06/27 02:55:03;;;;;;;4.10;3.37;;;;;;;;;;5029947;28;20624;-69
2022/06/27 02:57:38;;;;;;;3.97;3.27;;;;;;;;;;5024637;28;20454;-69
2022/06/27 03:00:07;;;;;;;4.00;3.60;;;;;;;;;;5030813;28;20917;-69
2022/06/27 03:02:36;;;;;;;3.80;3.40;;;;;;;;;;5030916;28;20449;-69
2022/06/27 03:05:06;;;;;;;4.37;3.40;;;;;;;;;;5031546;28;20467;-69
2022/06/27 03:07:37;;;;;;;5.90;3.50;;;;;;;;;;5029143;28;20581;-69
2022/06/27 03:10:05;;;;;;;3.90;3.13;;;;;;;;;;5029464;28;20466;-69
2022/06/27 03:12:33;;;;;;;3.50;3.20;;;;;;;;;;5029334;28;20454;-69
2022/06/27 03:15:01;;;;;;;3.40;3.10;;;;;;;;;;5029575;28;20463;-69
2022/06/27 03:17:29;;;;;;;6.90;3.10;;;;;;;;;;5030054;28;20442;-69
2022/06/27 03:19:57;;;;;;;4.53;3.30;;;;;;;;;;5028142;28;20871;-69
2022/06/27 03:22:26;;;;;;;5.60;3.20;;;;;;;;;;5030172;28;20450;-69
2022/06/27 03:24:54;;;;;;;2.80;2.50;;;;;;;;;;5028560;28;20732;-69
2022/06/27 03:27:21;;;;;;;3.60;3.30;;;;;;;;;;5030608;28;20483;-69
2022/06/27 03:29:49;;;;;;;5.97;3.37;;;;;;;;;;5028874;28;20627;-69
2022/06/27 03:32:16;;;;;;;5.20;3.23;;;;;;;;;;5029103;28;20461;-69
2022/06/27 03:34:45;;;;;;;4.40;3.40;;;;;;;;;;5029169;28;20804;-69
2022/06/27 03:37:15;;;;;;;3.63;2.50;;;;;;;;;;5029718;28;21051;-70
2022/06/27 03:39:44;;;;;;;4.70;2.90;;;;;;;;;;5030976;28;20462;-69
2022/06/27 03:42:12;;;;;;;3.87;3.07;;;;;;;;;;5029789;28;20451;-69
2022/06/27 03:44:39;;;;;;;5.17;2.73;;;;;;;;;;5030855;28;20474;-69
2022/06/27 03:47:08;;;;;;;3.97;3.07;;;;;;;;;;5030571;28;20512;-69
2022/06/27 03:52:20;;;;;;;5.70;2.80;;;;;;;;;;5029276;28;20866;-68
2022/06/27 03:54:50;;;;;;;4.97;3.27;;;;;;;;;;5029679;28;20511;-70
2022/06/27 03:57:17;;;;;;;4.40;2.93;;;;;;;;;;5029199;28;20451;-70
2022/06/27 03:59:45;;;;;;;4.90;2.70;;;;;;;;;;5028628;28;20835;-70
2022/06/27 04:05:25;;;;;;;3.77;2.57;;;;;;;;;;5017607;28;20434;-70
2022/06/27 04:07:52;;;;;;;4.60;3.10;;;;;;;;;;5029427;28;20486;-70
2022/06/27 04:10:21;;;;;;;5.50;2.73;;;;;;;;;;5029462;28;20446;-70
2022/06/27 04:12:49;;;;;;;3.70;2.63;;;;;;;;;;5040945;28;20686;-70
2022/06/27 04:15:20;;;;;;;4.53;2.97;;;;;;;;;;5032746;28;21151;-70
2022/06/27 04:17:48;;;;;;;7.63;4.93;;;;;;;;;;5029248;28;20447;-70
2022/06/27 04:20:15;;;;;;;5.00;2.37;;;;;;;;;;5030917;28;20454;-70
2022/06/27 04:22:43;;;;;;;4.60;2.83;;;;;;;;;;5032638;28;20721;-70
2022/06/27 04:25:11;;;;;;;5.27;2.70;;;;;;;;;;5031452;28;20874;-70
2022/06/27 04:27:40;;;;;;;5.33;3.10;;;;;;;;;;5028820;28;20511;-70
2022/06/27 04:30:15;;;;;;;5.20;4.10;;;;;;;;;;5036283;28;20472;-70
2022/06/27 04:32:43;;;;;;;5.67;3.50;;;;;;;;;;5053568;28;20453;-70
2022/06/27 04:35:11;;;;;;;7.60;3.30;;;;;;;;;;5036396;28;20934;-70
2022/06/27 04:37:40;;;;;;;4.73;3.10;;;;;;;;;;5031201;28;20850;-70
2022/06/27 04:40:11;;;;;;;6.60;3.90;;;;;;;;;;5031503;28;20450;-70
2022/06/27 04:42:41;;;;;;;9.13;3.10;;;;;;;;;;5030623;28;20519;-70
2022/06/27 04:45:11;;;;;;;4.80;2.90;;;;;;;;;;5030787;28;20455;-70
2022/06/27 04:47:40;;;;;;;4.30;3.00;;;;;;;;;;5029979;28;20490;-70
2022/06/27 04:50:09;;;;;;;3.73;2.30;;;;;;;;;;5031612;28;20454;-70
2022/06/27 04:52:38;;;;;;;5.07;2.47;;;;;;;;;;5031928;28;20455;-70
2022/06/27 04:55:08;;;;;;;5.97;2.57;;;;;;;;;;5030384;28;20878;-70
2022/06/27 04:57:37;;;;;;;23.53;7.40;;;;;;;;;;5027042;28;20501;-69
2022/06/27 05:00:08;;;;;;;4.23;2.33;;;;;;;;;;5030679;28;20458;-69
2022/06/27 05:02:36;;;;;;;3.83;2.70;;;;;;;;;;5030561;28;20477;-69
2022/06/27 05:05:07;;;;;;;10.47;2.70;;;;;;;;;;5030202;28;20458;-69
2022/06/27 05:07:35;;;;;;;4.37;2.60;;;;;;;;;;5022576;28;20486;-70
2022/06/27 05:10:02;;;;;;;5.80;2.60;;;;;;;;;;5024358;28;20451;-70
2022/06/27 05:12:30;;;;;;;5.00;2.37;;;;;;;;;;5028924;28;20705;-69
2022/06/27 05:14:58;;;;;;;3.70;2.53;;;;;;;;;;5029676;28;20765;-70
2022/06/27 05:17:27;;;;;;;4.43;2.40;;;;;;;;;;5029410;28;20555;-70
2022/06/27 05:19:54;;;;;;;5.80;4.00;;;;;;;;;;5029726;28;20458;-70
2022/06/27 05:22:23;;;;;;;5.70;2.77;;;;;;;;;;5029470;28;20450;-69
2022/06/27 05:24:51;;;;;;;5.00;2.63;;;;;;;;;;5032553;28;20531;-69
2022/06/27 05:27:19;;;;;;;8.07;4.07;;;;;;;;;;5028486;28;20477;-70
2022/06/27 05:29:47;;;;;;;4.60;2.80;;;;;;;;;;5028734;28;20847;-69
2022/06/27 05:32:15;;;;;;;2.93;2.27;;;;;;;;;;5027020;28;21065;-70
2022/06/27 05:34:44;;;;;;;5.80;2.57;;;;;;;;;;5028250;28;20446;-70
2022/06/27 05:37:16;;;;;;;4.40;2.30;;;;;;;;;;5030893;28;20658;-71
2022/06/27 05:39:45;;;;;;;4.20;2.40;;;;;;;;;;5048070;28;20838;-70
2022/06/27 05:42:12;;;;;;;5.07;3.53;;;;;;;;;;5038143;28;20458;-70
2022/06/27 05:44:40;;;;;;;9.13;3.10;;;;;;;;;;5028416;28;20883;-70
2022/06/27 05:47:09;;;;;;;9.83;2.90;;;;;;;;;;5029225;28;20515;-70
2022/06/27 05:49:37;;;;;;;3.83;2.93;;;;;;;;;;5028550;28;20827;-70
2022/06/27 05:52:07;;;;;;;5.50;2.87;;;;;;;;;;5029599;28;21066;-70
2022/06/27 05:54:38;;;;;;;3.80;2.70;;;;;;;;;;5028740;28;20442;-71
2022/06/27 05:57:06;;;;;;;4.50;2.90;;;;;;;;;;5029314;28;20458;-71
2022/06/27 05:59:34;;;;;;;3.50;2.70;;;;;;;;;;5022853;28;20445;-71
2022/06/27 06:02:03;;;;;;;5.13;2.83;;;;;;;;;;5008841;28;20856;-71
2022/06/27 06:04:31;;;;;;;7.10;2.87;;;;;;;;;;5020306;28;20520;-71
2022/06/27 06:07:01;;;;;;;4.77;2.53;;;;;;;;;;5025061;28;20528;-72
2022/06/27 06:09:33;;;;;;;8.53;3.00;;;;;;;;;;5029464;28;20482;-72
2022/06/27 06:12:01;;;;;;;8.97;3.43;;;;;;;;;;5030357;28;20524;-72
2022/06/27 06:14:32;;;;;;;8.13;2.83;;;;;;;;;;5027411;28;20474;-72
2022/06/27 06:17:00;;;;;;;5.23;2.73;;;;;;;;;;5022197;28;20704;-71
2022/06/27 06:19:33;;;;;;;4.77;3.60;;;;;;;;;;5009657;28;20575;-71
2022/06/27 06:22:01;;;;;;;4.40;2.83;;;;;;;;;;5009175;28;20471;-72
2022/06/27 06:24:32;;;;;;;6.30;3.57;;;;;;;;;;5009298;28;20544;-71
2022/06/27 06:27:01;;;;;;;7.20;3.33;;;;;;;;;;5010523;28;20856;-71
2022/06/27 06:29:30;;;;;;;5.10;3.97;;;;;;;;;;5009043;28;20494;-72
2022/06/27 06:31:58;;;;;;;5.13;3.50;;;;;;;;;;5009020;28;20459;-71
2022/06/27 06:34:26;;;;;;;7.23;3.73;;;;;;;;;;5008766;28;20457;-71
2022/06/27 06:36:54;;;;;;;5.50;3.10;;;;;;;;;;5020536;28;20862;-71
2022/06/27 06:39:21;;;;;;;6.77;4.40;;;;;;;;;;5022858;28;20443;-72
2022/06/27 06:41:52;;;;;;;5.23;3.60;;;;;;;;;;5026770;28;20462;-71
2022/06/27 06:44:20;;;;;;;4.70;3.40;;;;;;;;;;5027466;28;20438;-71
2022/06/27 06:46:49;;;;;;;5.10;3.47;;;;;;;;;;5028250;28;20474;-72
2022/06/27 06:49:17;;;;;;;4.40;3.10;;;;;;;;;;5028765;28;20871;-72
2022/06/27 06:51:49;;;;;;;5.03;4.13;;;;;;;;;;5032523;27;20866;-72
2022/06/27 06:54:20;;;;;;;6.17;4.40;;;;;;;;;;5028371;28;20450;-72
2022/06/27 06:56:53;;;;;;;6.57;4.47;;;;;;;;;;5037035;27;20497;-72
2022/06/27 06:59:23;;;;;;;5.50;4.30;;;;;;;;;;5013281;28;20538;-71
2022/06/27 07:01:50;;;;;;;4.23;3.83;;;;;;;;;;5031367;27;20947;-71
2022/06/27 07:04:19;;;;;;;5.23;4.63;;;;;;;;;;5028929;28;20454;-71
2022/06/27 07:06:47;;;;;;;8.10;4.57;;;;;;;;;;5017117;28;20455;-71
2022/06/27 07:09:15;;;;;;;7.13;5.47;;;;;;;;;;5008016;28;20564;-71
2022/06/27 07:11:45;;;;;;;7.40;5.20;;;;;;;;;;5022125;28;20455;-72
2022/06/27 07:14:14;;;;;;;6.83;5.10;;;;;;;;;;5016185;28;20462;-71
2022/06/27 07:16:55;;;;;;;6.80;5.17;;;;;;;;;;5011908;28;20454;-71
2022/06/27 07:19:24;;;;;;;4.83;4.33;;;;;;;;;;5026322;28;20541;-71
2022/06/27 07:21:52;;;;;;;8.60;4.50;;;;;;;;;;5027166;28;20526;-70
2022/06/27 07:24:27;;;;;;;5.70;4.10;;;;;;;;;;5024601;28;20546;-71
2022/06/27 07:26:59;;;;;;;9.67;5.00;;;;;;;;;;5024885;27;21067;-70
2022/06/27 07:29:27;;;;;;;5.73;3.97;;;;;;;;;;5009140;28;20487;-70
2022/06/27 07:31:56;;;;;;;9.00;4.80;;;;;;;;;;5007117;28;20451;-71
2022/06/27 07:34:25;;;;;;;8.73;4.93;;;;;;;;;;5026157;28;20454;-71
2022/06/27 07:36:53;;;;;;;11.33;5.30;;;;;;;;;;5026951;28;20478;-71
2022/06/27 07:39:20;;;;;;;7.50;4.90;;;;;;;;;;5027273;28;20503;-70
2022/06/27 07:41:49;;;;;;;6.30;4.60;;;;;;;;;;5028494;28;20916;-70
2022/06/27 07:44:17;;;;;;;6.40;4.80;;;;;;;;;;5013841;28;20451;-71
2022/06/27 07:46:47;;;;;;;6.83;4.80;;;;;;;;;;5017332;28;20461;-71
2022/06/27 07:49:16;;;;;;;6.57;5.87;;;;;;;;;;5116442;27;20564;-70
2022/06/27 07:51:47;;;;;;;6.53;5.33;;;;;;;;;;5032150;28;20442;-71
2022/06/27 07:54:16;;;;;;;6.37;4.90;;;;;;;;;;5026255;28;20459;-71
2022/06/27 07:56:46;;;;;;;8.10;5.40;;;;;;;;;;5026676;28;21039;-71
2022/06/27 07:59:15;;;;;;;6.87;4.83;;;;;;;;;;5029425;28;20465;-71
2022/06/27 08:01:44;;;;;;;5.83;4.60;;;;;;;;;;5027037;28;20461;-71
2022/06/27 08:04:14;;;;;;;6.63;4.47;;;;;;;;;;5025244;28;20515;-70
2022/06/27 08:06:45;;;;;;;5.87;4.90;;;;;;;;;;5012058;28;20539;-73
2022/06/27 08:09:13;;;;;;;4.83;4.33;;;;;;;;;;5008285;28;20491;-70
2022/06/27 08:11:42;;;;;;;8.47;4.93;;;;;;;;;;5019099;28;20552;-70
2022/06/27 08:14:11;;;;;;;12.33;5.50;;;;;;;;;;5029007;28;21016;-69
2022/06/27 08:16:39;;;;;;;7.33;4.80;;;;;;;;;;5027686;28;20550;-71
2022/06/27 08:19:08;;;;;;;7.10;4.20;;;;;;;;;;5026702;28;20487;-69
2022/06/27 08:21:41;;;;;;;5.23;4.73;;;;;;;;;;5104291;28;20529;-70
2022/06/27 08:24:11;;;;;;;4.80;4.00;;;;;;;;;;5132291;27;20457;-71
2022/06/27 08:26:44;;;;;;;5.80;4.23;;;;;;;;;;5107661;28;20447;-71
2022/06/27 08:29:15;;;;;;;5.67;4.00;;;;;;;;;;5026614;28;20539;-70
2022/06/27 08:31:44;;;;;;;7.10;4.73;;;;;;;;;;5024318;28;20556;-70
2022/06/27 08:34:12;;;;;;;7.90;4.97;;;;;;;;;;5019070;28;20622;-70
2022/06/27 08:36:40;;;;;;;7.40;4.30;;;;;;;;;;5011223;28;21027;-70
2022/06/27 08:39:16;;;;;;;5.67;4.50;;;;;;;;;;5034304;28;20486;-70
2022/06/27 08:41:45;;;;;;;7.20;5.00;;;;;;;;;;5028053;28;20446;-70
2022/06/27 08:44:13;;;;;;;6.17;4.77;;;;;;;;;;5029195;28;20524;-70
2022/06/27 08:46:46;;;;;;;5.23;3.73;;;;;;;;;;5029014;28;21230;-71
2022/06/27 08:49:17;;;;;;;5.60;4.50;;;;;;;;;;5024481;28;21049;-70
2022/06/27 08:51:46;;;;;;;4.43;4.03;;;;;;;;;;5027018;28;20451;-70
2022/06/27 08:54:15;;;;;;;4.50;4.10;;;;;;;;;;5035799;28;20474;-72
2022/06/27 08:56:44;;;;;;;5.17;4.67;;;;;;;;;;5050708;28;20470;-70
2022/06/27 08:59:12;;;;;;;5.40;4.90;;;;;;;;;;5019910;28;20466;-71
2022/06/27 09:01:43;;;;;;;5.90;5.40;;;;;;;;;;5024938;28;20564;-70
2022/06/27 09:04:11;;;;;;;7.37;4.97;;;;;;;;;;5026587;28;20475;-70
2022/06/27 09:06:55;;;;;;;7.73;5.00;;;;;;;;;;5027784;28;20445;-70
2022/06/27 09:09:27;;;;;;;6.87;5.07;;;;;;;;;;5030729;28;20490;-70
2022/06/27 09:12:02;;;;;;;4.57;4.07;;;;;;;;;;5023940;28;20462;-70
2022/06/27 09:14:34;;;;;;;8.33;5.13;;;;;;;;;;5017404;28;20462;-70
2022/06/27 09:17:09;;;;;;;6.27;4.90;;;;;;;;;;5031060;28;20457;-70
2022/06/27 09:19:48;;;;;;;4.53;3.90;;;;;;;;;;5029240;28;20465;-71
2022/06/27 09:22:24;;;;;;;5.10;4.33;;;;;;;;;;5028319;28;20461;-71
2022/06/27 09:25:04;;;;;;;5.20;3.90;;;;;;;;;;5043185;28;20461;-71
2022/06/27 09:27:44;;;;;;;4.90;4.40;;;;;;;;;;5029532;28;20857;-70
2022/06/27 09:30:29;;;;;;;7.07;4.83;;;;;;;;;;5023147;28;20601;-72
2022/06/27 09:32:59;;;;;;;6.70;4.20;;;;;;;;;;5033604;28;20526;-70
2022/06/27 09:35:31;;;;;;;5.53;3.60;;;;;;;;;;5026824;28;20469;-71
2022/06/27 09:38:02;;;;;;;12.77;4.40;;;;;;;;;;5031956;28;20551;-72
2022/06/27 09:40:49;;;;;;;6.40;4.33;;;;;;;;;;5029049;28;20456;-71
2022/06/27 09:43:41;;;;;;;8.80;5.27;;;;;;;;;;5009745;28;20735;-71
2022/06/27 09:46:17;;;;;;;6.10;5.07;;;;;;;;;;5029738;28;20861;-71
2022/06/27 09:48:49;;;;;;;6.17;5.47;;;;;;;;;;5026427;28;20847;-70
2022/06/27 09:51:22;;;;;;;9.47;5.77;;;;;;;;;;5027682;28;20454;-72
2022/06/27 09:53:51;;;;;;;6.40;4.77;;;;;;;;;;5029180;28;20874;-70
2022/06/27 09:56:20;;;;;;;6.80;5.20;;;;;;;;;;5049302;28;20473;-70
2022/06/27 09:58:47;;;;;;;13.63;11.93;;;;;;;;;;5048800;28;20460;-69
2022/06/27 10:01:17;;;;;;;8.20;6.27;;;;;;;;;;5047211;28;20612;-70
2022/06/27 10:03:45;;;;;;;8.13;6.27;;;;;;;;;;5034610;27;20557;-69
2022/06/27 10:06:14;;;;;;;6.57;5.97;;;;;;;;;;5026414;28;20469;-71
2022/06/27 10:08:49;;;;;;;7.30;6.57;;;;;;;;;;5028794;28;20462;-70
2022/06/27 10:11:20;;;;;;;15.60;8.00;;;;;;;;;;5025031;28;20481;-71
2022/06/27 10:14:13;;;;;;;7.63;6.43;;;;;;;;;;5032686;28;20454;-71
2022/06/27 10:16:51;;;;;;;6.10;5.50;;;;;;;;;;5029768;28;20549;-71
2022/06/27 10:19:19;;;;;;;10.33;7.00;;;;;;;;;;5032165;28;20454;-71
2022/06/27 10:21:48;;;;;;;8.83;7.53;;;;;;;;;;5047602;27;20453;-70
2022/06/27 10:24:34;;;;;;;10.43;6.07;;;;;;;;;;5036614;28;20458;-71
2022/06/27 10:27:04;;;;;;;6.83;5.57;;;;;;;;;;5028457;28;20538;-72
2022/06/27 10:29:34;;;;;;;9.63;5.57;;;;;;;;;;5028550;28;20486;-72
2022/06/27 10:32:08;;;;;;;9.07;6.10;;;;;;;;;;5027661;28;20472;-72
2022/06/27 10:34:54;;;;;;;6.20;5.60;;;;;;;;;;5028190;28;20458;-72
2022/06/27 10:37:45;;;;;;;7.40;5.50;;;;;;;;;;5002192;28;20561;-72
2022/06/27 10:40:31;;;;;;;9.10;6.40;;;;;;;;;;4994100;28;20470;-72
2022/06/27 10:42:59;;;;;;;8.60;6.30;;;;;;;;;;5008328;28;20451;-72
2022/06/27 10:45:28;;;;;;;9.13;6.40;;;;;;;;;;5026550;28;20890;-72
2022/06/27 10:47:58;;;;;;;7.20;5.97;;;;;;;;;;5022005;28;20463;-72
2022/06/27 10:50:28;;;;;;;6.80;5.80;;;;;;;;;;5008506;28;20483;-71
2022/06/27 10:53:10;;;;;;;6.27;5.67;;;;;;;;;;5008082;28;20477;-71
2022/06/27 10:55:39;;;;;;;9.40;6.10;;;;;;;;;;5008525;28;20456;-71
2022/06/27 10:58:20;;;;;;;6.40;4.80;;;;;;;;;;5008583;28;20444;-71
2022/06/27 11:00:51;;;;;;;6.00;5.20;;;;;;;;;;5009191;28;20448;-71
2022/06/27 11:03:28;;;;;;;7.30;6.60;;;;;;;;;;5007427;28;20451;-72
2022/06/27 11:06:02;;;;;;;8.10;6.10;;;;;;;;;;5017096;28;20929;-71
2022/06/27 11:08:30;;;;;;;8.27;7.10;;;;;;;;;;5035759;28;20454;-71
2022/06/27 11:11:01;;;;;;;8.63;6.87;;;;;;;;;;5027310;28;20577;-72
2022/06/27 11:13:36;;;;;;;10.00;6.33;;;;;;;;;;5015268;28;20473;-72
2022/06/27 11:16:07;;;;;;;7.83;6.63;;;;;;;;;;5025654;28;20477;-69
2022/06/27 11:18:43;;;;;;;10.43;6.43;;;;;;;;;;5028449;28;20493;-72
2022/06/27 11:21:15;;;;;;;9.73;7.40;;;;;;;;;;5027238;28;20750;-71
2022/06/27 11:23:51;;;;;;;8.70;7.77;;;;;;;;;;5025754;28;20475;-70
2022/06/27 11:26:20;;;;;;;9.17;8.27;;;;;;;;;;5022916;28;20934;-70
2022/06/27 11:32:00;;;;;;;9.73;8.80;;;;;;;;;;5014166;28;20490;-70
2022/06/27 11:34:29;;;;;;;12.57;9.23;;;;;;;;;;5025343;28;20515;-70
2022/06/27 11:37:00;;;;;;;12.30;9.30;;;;;;;;;;5015515;28;20471;-70
2022/06/27 11:39:29;;;;;;;9.30;8.40;;;;;;;;;;5025754;28;20538;-70
2022/06/27 11:42:01;;;;;;;9.40;8.50;;;;;;;;;;5009286;28;20459;-71
2022/06/27 11:44:31;;;;;;;10.27;9.17;;;;;;;;;;5036277;28;21051;-70
2022/06/27 11:47:13;;;;;;;8.53;7.40;;;;;;;;;;5024633;28;20494;-71
2022/06/27 11:49:45;;;;;;;9.70;8.80;;;;;;;;;;5025755;28;20508;-72
2022/06/27 11:52:13;;;;;;;15.43;10.83;;;;;;;;;;5021771;28;20484;-70
2022/06/27 11:54:42;;;;;;;10.17;9.20;;;;;;;;;;5026836;28;20756;-70
2022/06/27 11:57:25;;;;;;;10.00;8.17;;;;;;;;;;5038675;28;20468;-71
2022/06/27 11:59:57;;;;;;;10.10;8.77;;;;;;;;;;5025673;28;20481;-70
2022/06/27 12:02:34;;;;;;;13.27;8.30;;;;;;;;;;5036127;28;20513;-71
2022/06/27 12:05:09;;;;;;;9.13;7.47;;;;;;;;;;5046134;28;20544;-70
2022/06/27 12:07:56;;;;;;;9.90;8.43;;;;;;;;;;5065358;28;20901;-71
2022/06/27 12:10:44;;;;;;;8.60;7.77;;;;;;;;;;5131028;27;20493;-71
2022/06/27 12:13:16;;;;;;;9.03;7.80;;;;;;;;;;5021990;28;20770;-70
2022/06/27 12:15:46;;;;;;;8.60;7.70;;;;;;;;;;5038733;28;20485;-70
2022/06/27 12:18:20;;;;;;;11.50;8.73;;;;;;;;;;5019827;28;20497;-70
2022/06/27 12:20:52;;;;;;;8.83;7.70;;;;;;;;;;5024242;28;20489;-71
2022/06/27 12:23:19;;;;;;;11.10;9.47;;;;;;;;;;5023926;28;20458;-70
2022/06/27 12:25:47;;;;;;;8.50;7.60;;;;;;;;;;5026614;28;20465;-70
2022/06/27 12:28:16;;;;;;;10.13;8.07;;;;;;;;;;5024697;28;20470;-70
2022/06/27 12:30:44;;;;;;;10.10;8.63;;;;;;;;;;5045842;28;20469;-71
2022/06/27 12:33:12;;;;;;;7.93;6.83;;;;;;;;;;5131010;28;20541;-70
2022/06/27 12:35:41;;;;;;;9.30;8.30;;;;;;;;;;5023279;28;20469;-70
2022/06/27 12:38:09;;;;;;;9.77;7.90;;;;;;;;;;5025867;28;20807;-70
2022/06/27 12:40:37;;;;;;;10.10;7.60;;;;;;;;;;5019814;28;20465;-71
2022/06/27 12:43:05;;;;;;;10.27;8.60;;;;;;;;;;5020855;28;20461;-69
2022/06/27 12:45:34;;;;;;;8.13;7.33;;;;;;;;;;5027281;28;20462;-70
2022/06/27 12:48:05;;;;;;;8.03;6.37;;;;;;;;;;5034137;27;20454;-71
2022/06/27 12:50:33;;;;;;;5.97;5.37;;;;;;;;;;5027238;28;20513;-71
2022/06/27 12:53:02;;;;;;;6.07;5.47;;;;;;;;;;5029028;28;20473;-71
2022/06/27 12:55:30;;;;;;;7.40;6.70;;;;;;;;;;5028645;28;20568;-70
2022/06/27 12:57:58;;;;;;;8.83;7.73;;;;;;;;;;5030176;28;20458;-71
2022/06/27 13:00:25;;;;;;;11.30;7.60;;;;;;;;;;5034456;28;20960;-70
2022/06/27 13:02:53;;;;;;;8.13;6.93;;;;;;;;;;5051041;28;20478;-70
2022/06/27 13:05:22;;;;;;;7.40;6.60;;;;;;;;;;5028783;28;20549;-70
2022/06/27 13:07:50;;;;;;;7.20;6.03;;;;;;;;;;5040360;27;20530;-70
2022/06/27 13:10:22;;;;;;;7.77;7.07;;;;;;;;;;5027830;28;20486;-70
2022/06/27 13:12:50;;;;;;;8.73;7.17;;;;;;;;;;5017866;28;20459;-71
2022/06/27 13:15:20;;;;;;;8.90;7.57;;;;;;;;;;5023728;28;20495;-70
2022/06/27 13:17:47;;;;;;;7.60;6.60;;;;;;;;;;5017750;28;20462;-70
2022/06/27 13:20:21;;;;;;;8.73;6.90;;;;;;;;;;5046355;28;20580;-70
2022/06/27 13:22:49;;;;;;;8.17;6.87;;;;;;;;;;5014679;28;20633;-71
2022/06/27 13:25:18;;;;;;;7.77;7.07;;;;;;;;;;5018746;28;20470;-70
2022/06/27 13:27:48;;;;;;;8.03;6.90;;;;;;;;;;5025656;28;20463;-70
2022/06/27 13:30:16;;;;;;;7.63;6.00;;;;;;;;;;5023435;28;20544;-69
2022/06/27 13:32:45;;;;;;;7.50;6.70;;;;;;;;;;5024036;28;20862;-70
2022/06/27 13:35:13;;;;;;;6.77;5.33;;;;;;;;;;5025086;28;20496;-69
2022/06/27 13:37:41;;;;;;;7.80;6.80;;;;;;;;;;5029098;28;20465;-71
2022/06/27 13:40:11;;;;;;;7.50;6.77;;;;;;;;;;5029023;28;20557;-69
2022/06/27 13:42:39;;;;;;;7.63;6.73;;;;;;;;;;5022709;28;20477;-69
2022/06/27 13:45:12;;;;;;;7.23;6.53;;;;;;;;;;5033055;28;20467;-69
2022/06/27 13:47:42;;;;;;;7.43;6.43;;;;;;;;;;5017211;28;20535;-70
2022/06/27 13:50:17;;;;;;;8.40;7.50;;;;;;;;;;5026662;28;20479;-69
2022/06/27 13:52:46;;;;;;;7.27;6.27;;;;;;;;;;5020137;28;20527;-69
2022/06/27 13:55:19;;;;;;;6.40;5.80;;;;;;;;;;5011761;28;20968;-70
2022/06/27 13:57:51;;;;;;;7.53;5.53;;;;;;;;;;5027611;28;20964;-70
2022/06/27 14:00:21;;;;;;;9.50;7.20;;;;;;;;;;5020979;28;20542;-70
2022/06/27 14:02:49;;;;;;;7.47;6.07;;;;;;;;;;5029151;28;21032;-70
2022/06/27 14:05:17;;;;;;;8.07;6.63;;;;;;;;;;5027518;28;20462;-71
2022/06/27 14:07:48;;;;;;;8.33;5.60;;;;;;;;;;5021648;28;20493;-70
2022/06/27 14:10:18;;;;;;;6.70;6.10;;;;;;;;;;5019850;28;20894;-71
2022/06/27 14:12:48;;;;;;;6.53;5.90;;;;;;;;;;5037924;27;20451;-71
2022/06/27 14:15:20;;;;;;;7.93;6.40;;;;;;;;;;5025595;28;20455;-71
2022/06/27 14:17:49;;;;;;;5.90;5.33;;;;;;;;;;5025349;28;20455;-71
2022/06/27 14:20:19;;;;;;;7.77;5.63;;;;;;;;;;5022797;28;20574;-71
2022/06/27 14:22:47;;;;;;;7.23;6.53;;;;;;;;;;5027985;28;20493;-71
2022/06/27 14:25:15;;;;;;;7.43;6.73;;;;;;;;;;5023406;27;20469;-71
2022/06/27 14:27:43;;;;;;;7.60;6.87;;;;;;;;;;5035207;28;20451;-71
2022/06/27 14:30:11;;;;;;;8.23;6.17;;;;;;;;;;5027839;28;20458;-71
2022/06/27 14:32:43;;;;;;;8.23;6.73;;;;;;;;;;5026100;28;20995;-71
2022/06/27 14:35:14;;;;;;;7.73;6.77;;;;;;;;;;5028475;28;20457;-71
2022/06/27 14:37:42;;;;;;;8.10;6.27;;;;;;;;;;5021124;28;20528;-72
2022/06/27 14:40:11;;;;;;;8.17;6.87;;;;;;;;;;5025700;28;20641;-70
2022/06/27 14:42:42;;;;;;;10.30;6.40;;;;;;;;;;5081960;27;20474;-71
2022/06/27 14:45:14;;;;;;;6.67;6.07;;;;;;;;;;5041083;27;20491;-71
2022/06/27 14:47:42;;;;;;;8.20;7.50;;;;;;;;;;5027505;28;20466;-70
2022/06/27 14:50:13;;;;;;;7.97;6.90;;;;;;;;;;5046465;27;20559;-71
2022/06/27 14:52:44;;;;;;;7.47;6.67;;;;;;;;;;5019745;28;21133;-71
2022/06/27 14:55:19;;;;;;;6.07;5.47;;;;;;;;;;5031470;27;20541;-71
2022/06/27 14:57:51;;;;;;;6.03;5.43;;;;;;;;;;5014264;28;20491;-70
2022/06/27 15:00:31;;;;;;;9.30;6.50;;;;;;;;;;5011518;28;20848;-70
2022/06/27 15:03:02;;;;;;;7.70;5.90;;;;;;;;;;5028356;28;20465;-70
2022/06/27 15:05:39;;;;;;;7.73;5.90;;;;;;;;;;5028927;28;20473;-72
2022/06/27 15:08:16;;;;;;;7.63;6.93;;;;;;;;;;5027530;28;20923;-70
2022/06/27 15:13:47;;;;;;;7.73;7.03;;;;;;;;;;5053628;27;21092;-71